createdAt,value
2022-11-13T00:00:06.347Z,12.40
2022-11-13T00:02:54.351Z,11.23
2022-11-13T00:05:40.976Z,11.40
2022-11-13T00:08:28.020Z,11.77
2022-11-13T00:11:16.039Z,11.33
2022-11-13T00:14:02.675Z,12.17
2022-11-13T00:16:49.233Z,11.63
2022-11-13T00:19:37.736Z,12.27
2022-11-13T00:22:24.500Z,12.60
2022-11-13T00:25:11.253Z,13.27
2022-11-13T00:27:57.892Z,12.90
2022-11-13T00:30:44.604Z,13.00
2022-11-13T00:34:02.112Z,12.23
2022-11-13T00:36:39.789Z,12.67
2022-11-13T00:39:26.537Z,12.87
2022-11-13T00:42:13.189Z,13.07
2022-11-13T00:44:59.713Z,12.80
2022-11-13T00:47:46.299Z,12.97
2022-11-13T00:50:33.158Z,11.93
2022-11-13T00:53:21.427Z,12.53
2022-11-13T00:56:08.939Z,12.17
2022-11-13T00:58:55.957Z,12.47
2022-11-13T01:01:43.063Z,12.30
2022-11-13T01:04:30.136Z,13.10
2022-11-13T01:07:17.911Z,12.40
2022-11-13T01:10:08.024Z,12.27
2022-11-13T01:12:55.663Z,12.50
2022-11-13T01:15:42.690Z,12.40
2022-11-13T01:18:29.664Z,12.80
2022-11-13T01:21:19.191Z,13.37
2022-11-13T01:24:06.166Z,13.13
2022-11-13T01:26:54.140Z,13.47
2022-11-13T01:29:40.686Z,13.00
2022-11-13T01:32:27.632Z,12.93
2022-11-13T01:35:14.867Z,12.37
2022-11-13T01:38:01.741Z,13.17
2022-11-13T01:40:48.453Z,13.13
2022-11-13T01:43:38.021Z,12.60
2022-11-13T01:46:30.307Z,13.07
2022-11-13T01:49:26.879Z,13.53
2022-11-13T01:52:16.846Z,12.43
2022-11-13T01:55:06.131Z,12.20
2022-11-13T01:57:52.757Z,12.47
2022-11-13T02:00:40.829Z,11.87
2022-11-13T02:03:27.283Z,11.70
2022-11-13T02:06:14.466Z,13.07
2022-11-13T02:09:01.357Z,11.73
2022-11-13T02:11:47.913Z,12.90
2022-11-13T02:14:35.027Z,12.37
2022-11-13T02:17:26.314Z,12.50
2022-11-13T02:20:14.140Z,11.93
2022-11-13T02:23:04.441Z,11.80
2022-11-13T02:25:54.634Z,12.67
2022-11-13T02:28:41.542Z,12.20
2022-11-13T02:31:28.465Z,12.00
2022-11-13T02:34:15.089Z,12.03
2022-11-13T02:37:02.031Z,11.13
2022-11-13T02:39:48.542Z,10.90
2022-11-13T02:42:36.819Z,11.27
2022-11-13T02:45:24.040Z,11.30
2022-11-13T02:48:10.797Z,12.10
2022-11-13T02:50:57.378Z,12.10
2022-11-13T02:53:44.120Z,11.47
2022-11-13T02:56:30.736Z,12.17
2022-11-13T02:59:18.671Z,12.70
2022-11-13T03:02:05.271Z,12.07
2022-11-13T03:05:11.443Z,12.43
2022-11-13T03:07:58.400Z,12.43
2022-11-13T03:10:45.535Z,12.53
2022-11-13T03:13:32.071Z,13.30
2022-11-13T03:16:20.184Z,12.80
2022-11-13T03:19:07.259Z,12.63
2022-11-13T03:21:54.005Z,12.93
2022-11-13T03:24:41.476Z,13.23
2022-11-13T03:27:28.444Z,13.70
2022-11-13T03:30:15.083Z,13.03
2022-11-13T03:33:03.219Z,14.17
2022-11-13T03:35:49.729Z,13.03
2022-11-13T03:38:36.617Z,14.40
2022-11-13T03:41:24.291Z,14.97
2022-11-13T03:44:11.272Z,14.63
2022-11-13T03:46:58.088Z,13.47
2022-11-13T03:49:45.989Z,13.63
2022-11-13T03:52:32.783Z,13.90
2022-11-13T03:55:20.248Z,13.17
2022-11-13T03:58:07.140Z,13.63
2022-11-13T04:00:55.324Z,12.87
2022-11-13T04:03:42.366Z,13.03
2022-11-13T04:06:30.380Z,13.47
2022-11-13T04:09:17.430Z,13.20
2022-11-13T04:12:04.495Z,14.30
2022-11-13T04:14:51.214Z,14.10
2022-11-13T04:17:38.544Z,13.37
2022-11-13T04:20:25.384Z,13.23
2022-11-13T04:23:15.807Z,14.10
2022-11-13T04:26:02.357Z,14.53
2022-11-13T04:28:48.833Z,13.47
2022-11-13T04:31:35.606Z,13.63
2022-11-13T04:34:22.221Z,13.67
2022-11-13T04:37:09.368Z,13.13
2022-11-13T04:39:57.554Z,13.03
2022-11-13T04:42:49.216Z,13.87
2022-11-13T04:45:36.355Z,14.13
2022-11-13T04:48:23.463Z,13.93
2022-11-13T04:51:10.473Z,13.87
2022-11-13T04:53:57.404Z,13.73
2022-11-13T04:56:45.667Z,14.47
2022-11-13T04:59:32.279Z,13.53
2022-11-13T05:02:19.205Z,14.33
2022-11-13T05:05:06.570Z,14.20
2022-11-13T05:07:54.143Z,13.63
2022-11-13T05:10:41.134Z,14.30
2022-11-13T05:13:31.584Z,14.37
2022-11-13T05:16:18.581Z,13.83
2022-11-13T05:19:06.905Z,13.63
2022-11-13T05:21:53.419Z,14.47
2022-11-13T05:24:40.116Z,14.13
2022-11-13T05:27:26.877Z,14.20
2022-11-13T05:30:15.075Z,14.37
2022-11-13T05:33:01.728Z,14.03
2022-11-13T05:35:48.867Z,14.13
2022-11-13T05:38:36.725Z,13.77
2022-11-13T05:41:23.984Z,14.30
2022-11-13T05:44:10.706Z,13.47
2022-11-13T05:46:59.070Z,14.33
2022-11-13T05:49:46.696Z,13.70
2022-11-13T05:52:33.305Z,12.97
2022-11-13T05:55:23.288Z,13.97
2022-11-13T05:58:11.793Z,14.30
2022-11-13T06:01:07.527Z,12.87
2022-11-13T06:03:56.174Z,14.27
2022-11-13T06:06:43.514Z,13.47
2022-11-13T06:09:30.492Z,13.73
2022-11-13T06:12:17.188Z,14.80
2022-11-13T06:15:04.058Z,13.23
2022-11-13T06:17:50.969Z,13.70
2022-11-13T06:20:38.913Z,14.03
2022-11-13T06:23:25.667Z,13.50
2022-11-13T06:26:13.932Z,13.87
2022-11-13T06:29:01.099Z,14.10
2022-11-13T06:31:47.425Z,12.97
2022-11-13T06:34:34.029Z,14.37
2022-11-13T06:37:22.111Z,13.40
2022-11-13T06:40:10.218Z,13.50
2022-11-13T06:42:56.986Z,13.17
2022-11-13T06:45:43.851Z,13.40
2022-11-13T06:48:30.575Z,13.17
2022-11-13T06:51:18.719Z,13.10
2022-11-13T06:54:06.835Z,13.93
2022-11-13T06:56:53.352Z,13.00
2022-11-13T06:59:39.817Z,13.73
2022-11-13T07:02:26.390Z,13.60
2022-11-13T07:05:13.063Z,13.40
2022-11-13T07:07:59.976Z,13.50
2022-11-13T07:10:53.904Z,13.73
2022-11-13T07:13:40.994Z,13.57
2022-11-13T07:16:38.885Z,12.50
2022-11-13T07:19:36.504Z,12.63
2022-11-13T07:22:23.176Z,13.40
2022-11-13T07:25:11.180Z,12.30
2022-11-13T07:27:59.455Z,12.40
2022-11-13T07:30:46.035Z,11.87
2022-11-13T07:33:32.884Z,12.53
2022-11-13T07:36:20.060Z,12.13
2022-11-13T07:39:07.240Z,11.97
2022-11-13T07:41:54.131Z,12.20
2022-11-13T07:44:54.443Z,12.87
2022-11-13T07:47:41.612Z,11.53
2022-11-13T07:50:29.037Z,12.20
2022-11-13T07:53:15.816Z,12.47
2022-11-13T07:56:03.197Z,11.60
2022-11-13T07:58:50.092Z,11.97
2022-11-13T08:01:38.459Z,11.60
2022-11-13T08:04:25.569Z,11.03
2022-11-13T08:07:13.365Z,11.80
2022-11-13T08:10:00.345Z,11.47
2022-11-13T08:12:47.194Z,11.17
2022-11-13T08:15:35.084Z,11.10
2022-11-13T08:18:23.050Z,9.97
2022-11-13T08:21:14.720Z,10.73
2022-11-13T08:24:01.671Z,9.83
2022-11-13T08:26:48.364Z,9.27
2022-11-13T08:29:37.293Z,9.23
2022-11-13T08:32:24.148Z,9.50
2022-11-13T08:35:16.051Z,9.13
2022-11-13T08:38:06.078Z,8.73
2022-11-13T08:40:53.224Z,8.60
2022-11-13T08:43:40.407Z,9.00
2022-11-13T08:46:27.202Z,8.23
2022-11-13T08:49:14.037Z,8.40
2022-11-13T08:52:02.978Z,8.37
2022-11-13T08:54:50.693Z,8.23
2022-11-13T08:57:38.475Z,8.70
2022-11-13T09:00:27.676Z,7.83
2022-11-13T09:03:14.646Z,8.63
2022-11-13T09:06:01.350Z,7.90
2022-11-13T09:08:49.483Z,7.27
2022-11-13T09:11:36.294Z,6.90
2022-11-13T09:14:22.823Z,7.60
2022-11-13T09:17:09.195Z,7.50
2022-11-13T09:19:59.500Z,7.27
2022-11-13T09:22:49.085Z,6.53
2022-11-13T09:25:38.977Z,7.87
2022-11-13T09:28:26.012Z,6.87
2022-11-13T09:31:13.124Z,7.33
2022-11-13T09:34:00.629Z,7.10
2022-11-13T09:36:48.506Z,7.07
2022-11-13T09:39:35.424Z,6.90
2022-11-13T09:42:26.523Z,7.00
2022-11-13T09:45:15.435Z,6.50
2022-11-13T09:48:11.497Z,6.37
2022-11-13T09:51:00.793Z,5.83
2022-11-13T09:53:49.999Z,5.97
2022-11-13T09:56:41.465Z,6.23
2022-11-13T09:59:35.162Z,6.00
2022-11-13T10:02:24.817Z,5.77
2022-11-13T10:05:16.370Z,5.53
2022-11-13T10:08:09.017Z,5.10
2022-11-13T10:11:00.601Z,5.40
2022-11-13T10:13:49.372Z,5.30
2022-11-13T10:16:40.335Z,5.83
2022-11-13T10:19:29.716Z,5.47
2022-11-13T10:22:35.304Z,5.40
2022-11-13T10:25:25.419Z,5.60
2022-11-13T10:28:43.673Z,5.37
2022-11-13T10:31:22.286Z,4.87
2022-11-13T10:34:10.717Z,5.00
2022-11-13T10:37:14.025Z,4.83
2022-11-13T10:40:00.851Z,4.80
2022-11-13T10:42:47.716Z,4.67
2022-11-13T10:45:34.575Z,4.67
2022-11-13T10:48:22.264Z,4.20
2022-11-13T10:51:23.200Z,4.37
2022-11-13T10:54:23.362Z,4.77
2022-11-13T10:57:24.094Z,4.90
2022-11-13T11:00:22.552Z,4.70
2022-11-13T11:03:10.276Z,4.77
2022-11-13T11:05:58.524Z,4.53
2022-11-13T11:08:47.122Z,4.03
2022-11-13T11:11:51.292Z,3.90
2022-11-13T11:14:43.761Z,4.00
2022-11-13T11:17:39.324Z,4.00
2022-11-13T11:20:45.680Z,4.20
2022-11-13T11:23:39.218Z,3.83
2022-11-13T11:26:31.703Z,3.80
2022-11-13T11:29:22.396Z,3.60
2022-11-13T11:32:15.614Z,4.03
2022-11-13T11:35:08.269Z,4.00
2022-11-13T11:37:58.989Z,3.80
2022-11-13T11:40:49.316Z,3.77
2022-11-13T11:43:42.073Z,4.47
2022-11-13T11:46:30.533Z,3.93
2022-11-13T11:49:17.258Z,3.77
2022-11-13T11:52:14.274Z,3.60
2022-11-13T11:55:09.510Z,3.80
2022-11-13T11:58:00.401Z,3.30
2022-11-13T12:00:51.494Z,3.97
2022-11-13T12:03:53.903Z,3.73
2022-11-13T12:06:58.359Z,2.90
2022-11-13T12:09:51.406Z,3.33
2022-11-13T12:12:49.608Z,3.50
2022-11-13T12:15:40.861Z,3.57
2022-11-13T12:18:36.882Z,3.30
2022-11-13T12:21:25.364Z,3.27
2022-11-13T12:24:26.851Z,3.27
2022-11-13T12:27:23.452Z,3.10
2022-11-13T12:30:15.486Z,2.90
2022-11-13T12:33:16.215Z,3.37
2022-11-13T12:36:04.645Z,3.03
2022-11-13T12:38:59.731Z,2.93
2022-11-13T12:41:50.834Z,3.00
2022-11-13T12:44:42.320Z,2.80
2022-11-13T12:47:28.889Z,2.97
2022-11-13T12:50:31.530Z,2.40
2022-11-13T12:53:27.989Z,2.90
2022-11-13T12:56:30.827Z,2.70
2022-11-13T12:59:33.313Z,2.60
2022-11-13T13:02:45.871Z,2.60
2022-11-13T13:05:50.573Z,2.33
2022-11-13T13:09:04.183Z,2.77
2022-11-13T13:11:59.057Z,2.70
2022-11-13T13:15:01.621Z,2.40
2022-11-13T13:17:48.770Z,2.23
2022-11-13T13:20:38.154Z,2.20
2022-11-13T13:23:29.109Z,2.30
2022-11-13T13:26:21.075Z,2.20
2022-11-13T13:29:17.907Z,2.90
2022-11-13T13:32:20.608Z,2.53
2022-11-13T13:35:15.160Z,2.50
2022-11-13T13:38:06.380Z,2.50
2022-11-13T13:41:06.427Z,2.50
2022-11-13T13:44:02.420Z,2.30
2022-11-13T13:46:51.596Z,2.43
2022-11-13T13:49:38.633Z,2.43
2022-11-13T13:52:29.322Z,2.57
2022-11-13T13:55:19.317Z,2.40
2022-11-13T13:58:09.888Z,2.53
2022-11-13T14:01:17.801Z,2.47
2022-11-13T14:04:12.755Z,3.23
2022-11-13T14:07:01.570Z,2.97
2022-11-13T14:09:49.010Z,3.20
2022-11-13T14:12:36.459Z,3.43
2022-11-13T14:15:27.399Z,5.03
2022-11-13T14:18:18.846Z,4.17
2022-11-13T14:21:10.191Z,4.20
2022-11-13T14:23:57.791Z,4.97
2022-11-13T14:26:45.907Z,5.40
2022-11-13T14:29:36.978Z,8.43
2022-11-13T14:32:26.222Z,7.87
2022-11-13T14:35:20.014Z,8.83
2022-11-13T14:38:07.176Z,10.53
2022-11-13T14:40:55.138Z,10.87
2022-11-13T14:43:50.903Z,9.27
2022-11-13T14:46:40.294Z,7.67
2022-11-13T14:49:29.138Z,8.17
2022-11-13T14:52:24.531Z,7.43
2022-11-13T14:55:23.391Z,6.20
2022-11-13T14:58:14.354Z,5.80
2022-11-13T15:01:14.314Z,5.57
2022-11-13T15:04:02.255Z,5.50
2022-11-13T15:06:50.982Z,5.27
2022-11-13T15:09:39.965Z,4.97
2022-11-13T15:12:28.053Z,4.27
2022-11-13T15:15:17.450Z,3.97
2022-11-13T15:18:04.983Z,3.90
2022-11-13T15:20:52.626Z,3.50
2022-11-13T15:23:39.729Z,3.40
2022-11-13T15:26:28.677Z,3.93
2022-11-13T15:29:15.697Z,3.50
2022-11-13T15:32:05.319Z,3.33
2022-11-13T15:34:52.537Z,3.40
2022-11-13T15:37:41.455Z,3.97
2022-11-13T15:40:28.609Z,4.10
2022-11-13T15:43:20.398Z,4.03
2022-11-13T15:46:11.155Z,4.00
2022-11-13T15:48:58.190Z,4.07
2022-11-13T15:51:46.623Z,4.20
2022-11-13T15:54:34.926Z,3.80
2022-11-13T15:57:23.119Z,3.80
2022-11-13T16:00:17.178Z,3.70
2022-11-13T16:03:11.486Z,3.27
2022-11-13T16:05:59.654Z,3.60
2022-11-13T16:08:50.040Z,3.57
2022-11-13T16:11:37.141Z,4.13
2022-11-13T16:14:25.241Z,4.07
2022-11-13T16:17:16.664Z,4.40
2022-11-13T16:20:04.473Z,4.00
2022-11-13T16:22:51.980Z,4.03
2022-11-13T16:25:39.093Z,3.73
2022-11-13T16:28:26.295Z,3.70
2022-11-13T16:31:13.392Z,3.63
2022-11-13T16:34:01.488Z,3.63
2022-11-13T16:36:49.034Z,3.47
2022-11-13T16:39:36.161Z,5.30
2022-11-13T16:42:29.806Z,4.43
2022-11-13T16:45:18.949Z,3.73
2022-11-13T16:48:06.688Z,4.43
2022-11-13T16:50:55.205Z,4.27
2022-11-13T16:53:42.573Z,4.93
2022-11-13T16:56:30.994Z,4.27
2022-11-13T16:59:18.251Z,4.90
2022-11-13T17:02:06.424Z,5.63
2022-11-13T17:04:57.404Z,6.20
2022-11-13T17:07:46.331Z,6.43
2022-11-13T17:10:33.658Z,6.50
2022-11-13T17:13:22.063Z,5.27
2022-11-13T17:16:11.602Z,5.13
2022-11-13T17:18:59.161Z,5.47
2022-11-13T17:21:45.988Z,5.60
2022-11-13T17:24:34.665Z,5.43
2022-11-13T17:27:22.177Z,5.50
2022-11-13T17:30:10.496Z,6.07
2022-11-13T17:32:58.137Z,6.50
2022-11-13T17:35:46.648Z,6.63
2022-11-13T17:38:34.467Z,7.40
2022-11-13T17:41:23.173Z,7.47
2022-11-13T17:44:10.725Z,6.67
2022-11-13T17:46:57.920Z,6.43
2022-11-13T17:49:46.144Z,7.20
2022-11-13T17:52:33.516Z,6.17
2022-11-13T17:55:20.741Z,7.10
2022-11-13T17:58:09.092Z,7.07
2022-11-13T18:01:05.783Z,7.60
2022-11-13T18:03:56.667Z,8.60
2022-11-13T18:06:43.678Z,7.63
2022-11-13T18:09:31.285Z,7.63
2022-11-13T18:12:19.123Z,6.50
2022-11-13T18:15:09.402Z,7.40
2022-11-13T18:17:56.488Z,6.23
2022-11-13T18:20:43.943Z,6.63
2022-11-13T18:23:31.486Z,5.83
2022-11-13T18:26:20.086Z,6.00
2022-11-13T18:29:07.525Z,5.87
2022-11-13T18:31:56.008Z,7.20
2022-11-13T18:34:42.935Z,7.07
2022-11-13T18:37:30.617Z,6.57
2022-11-13T18:40:19.704Z,7.33
2022-11-13T18:43:07.028Z,7.47
2022-11-13T18:45:58.896Z,7.40
2022-11-13T18:48:49.644Z,7.63
2022-11-13T18:51:38.031Z,8.17
2022-11-13T18:54:25.076Z,7.70
2022-11-13T18:57:13.027Z,8.23
2022-11-13T18:59:59.977Z,8.87
2022-11-13T19:02:47.438Z,8.50
2022-11-13T19:05:36.307Z,8.90
2022-11-13T19:08:23.479Z,8.90
2022-11-13T19:11:12.131Z,8.60
2022-11-13T19:13:59.661Z,7.67
2022-11-13T19:16:46.505Z,7.90
2022-11-13T19:19:33.506Z,7.27
2022-11-13T19:22:23.296Z,7.67
2022-11-13T19:25:11.437Z,8.10
2022-11-13T19:28:00.505Z,9.63
2022-11-13T19:30:49.145Z,9.53
2022-11-13T19:33:37.088Z,9.20
2022-11-13T19:36:26.023Z,9.47
2022-11-13T19:39:17.027Z,9.00
2022-11-13T19:42:04.915Z,9.47
2022-11-13T19:44:53.875Z,9.77
2022-11-13T19:47:42.439Z,9.37
2022-11-13T19:50:29.419Z,9.13
2022-11-13T19:53:16.464Z,8.80
2022-11-13T19:56:06.404Z,9.60
2022-11-13T19:58:54.776Z,9.70
2022-11-13T20:01:48.887Z,8.37
2022-11-13T20:04:40.299Z,8.00
2022-11-13T20:07:27.895Z,7.80
2022-11-13T20:10:18.658Z,8.10
2022-11-13T20:13:07.681Z,7.43
2022-11-13T20:15:55.879Z,7.43
2022-11-13T20:18:44.549Z,7.23
2022-11-13T20:21:33.067Z,6.77
2022-11-13T20:24:25.255Z,7.70
2022-11-13T20:27:13.030Z,7.13
2022-11-13T20:30:07.208Z,6.87
2022-11-13T20:32:55.847Z,7.63
2022-11-13T20:35:44.174Z,7.20
2022-11-13T20:39:12.932Z,7.07
2022-11-13T20:42:00.255Z,8.00
2022-11-13T20:44:48.448Z,7.83
2022-11-13T20:47:38.243Z,8.57
2022-11-13T20:50:46.109Z,8.87
2022-11-13T20:53:34.053Z,9.10
2022-11-13T20:56:31.420Z,9.40
2022-11-13T20:59:20.120Z,9.30
2022-11-13T21:02:08.057Z,9.80
2022-11-13T21:04:56.811Z,9.03
2022-11-13T21:07:44.359Z,9.40
2022-11-13T21:10:31.613Z,8.83
2022-11-13T21:13:19.213Z,8.30
2022-11-13T21:16:07.374Z,8.23
2022-11-13T21:18:56.310Z,8.07
2022-11-13T21:21:45.085Z,9.00
2022-11-13T21:24:32.208Z,8.47
2022-11-13T21:27:19.349Z,8.33
2022-11-13T21:30:07.280Z,8.50
2022-11-13T21:32:54.846Z,8.50
2022-11-13T21:35:41.574Z,8.53
2022-11-13T21:38:30.070Z,8.47
2022-11-13T21:41:23.414Z,8.40
2022-11-13T21:44:11.669Z,9.00
2022-11-13T21:46:58.773Z,8.60
2022-11-13T21:49:47.420Z,8.97
2022-11-13T21:52:34.377Z,8.80
2022-11-13T21:55:22.411Z,8.77
2022-11-13T21:58:09.023Z,9.50
2022-11-13T22:00:55.661Z,9.20
2022-11-13T22:03:42.816Z,10.70
2022-11-13T22:06:31.562Z,11.93
2022-11-13T22:09:20.095Z,11.10
2022-11-13T22:12:09.408Z,11.53
2022-11-13T22:14:56.040Z,10.03
2022-11-13T22:17:42.715Z,11.00
2022-11-13T22:20:29.411Z,10.03
2022-11-13T22:23:15.994Z,9.90
2022-11-13T22:26:04.307Z,10.60
2022-11-13T22:28:53.158Z,10.07
2022-11-13T22:31:39.805Z,9.97
2022-11-13T22:34:26.822Z,10.63
2022-11-13T22:37:13.905Z,10.73
2022-11-13T22:40:00.851Z,11.33
2022-11-13T22:42:47.900Z,10.10
2022-11-13T22:45:35.942Z,10.27
2022-11-13T22:48:22.645Z,10.97
2022-11-13T22:51:13.271Z,10.87
2022-11-13T22:54:01.264Z,10.80
2022-11-13T22:56:48.504Z,11.23
2022-11-13T22:59:35.793Z,9.63
2022-11-13T23:02:29.048Z,9.50
2022-11-13T23:05:16.956Z,8.23
2022-11-13T23:08:03.821Z,9.33
2022-11-13T23:10:53.641Z,8.93
2022-11-13T23:13:41.841Z,9.10
2022-11-13T23:16:28.859Z,8.57
2022-11-13T23:19:17.061Z,8.60
2022-11-13T23:22:04.099Z,8.67
2022-11-13T23:24:50.640Z,8.33
2022-11-13T23:27:37.477Z,7.87
2022-11-13T23:30:24.146Z,8.53
2022-11-13T23:33:11.007Z,7.87
2022-11-13T23:35:59.150Z,7.67
2022-11-13T23:38:46.507Z,7.63
2022-11-13T23:41:33.538Z,7.47
2022-11-13T23:44:20.342Z,6.60
2022-11-13T23:47:06.882Z,7.13
2022-11-13T23:49:53.602Z,6.43
2022-11-13T23:52:41.488Z,6.63
2022-11-13T23:55:28.376Z,7.40
2022-11-13T23:58:16.719Z,6.57
